Flight Track Log - Related Links

Times and Time Zones

All times are in EDT time to prevent confusion due to time zone crossing. See the N960DL flight status page for this flight to view local times or setup timezone preferences in your user account.

Time Position Orientation Groundspeed Altitude Reporting Facility
EDT Latitude Longitude Course Direction KTS MPH feet Rate Location/Type
Sun 04:03:17 PM 40.7500 -73.8333 217° Southwest 181 208 1,900  Level New York TRACON
Sun 04:04:17 PM 40.7667 -73.7833 66° East 218 251 4,700 2,293 Climbing New York TRACON
Sun 04:05:00 PM 40.4507 -74.0164 201° Southwest  Level FlightAware Approximate
Sun 04:05:54 PM 40.7781 -73.9197 276° West 291 335 7,900  Level New York Center
Sun 04:06:00 PM 40.3438 -74.0698 201° Southwest  Level FlightAware Approximate
Sun 04:06:11 PM 40.7667 -73.9333 222° Southwest 288 331 8,700  Level New York TRACON
Sun 04:07:00 PM 40.2370 -74.1232 201° Southwest  Level FlightAware Approximate
Sun 04:07:55 PM 40.6614 -74.0703 225° Southwest 333 383 11,800  Level New York Center
Sun 04:08:00 PM 40.1307 -74.1693 217° Southwest  Level FlightAware Approximate
Sun 04:08:54 PM 40.5606 -74.1036 194° South 351 404 12,500  Level New York Center
Sun 04:09:54 PM 40.4553 -74.1342 192° South 385 443 14,900 2,106 Climbing New York Center
Sun 04:11:25 PM 40.2800 -74.1775 191° South 461 531 17,800 2,013 Climbing Washington Center
Sun 04:12:26 PM 40.1811 -74.2611 213° Southwest 424 488 20,000 1,770 Climbing Washington Center
Sun 04:13:27 PM 40.0842 -74.3522 216° Southwest 424 488 21,400 1,513 Climbing Washington Center
Sun 04:14:25 PM 39.9831 -74.4542 218° Southwest 445 512 23,000 1,361 Climbing Washington Center
Sun 04:15:26 PM 39.8758 -74.5586 217° Southwest 463 533 24,100 1,377 Climbing Washington Center
Sun 04:16:27 PM 39.7683 -74.6628 217° Southwest 474 545 25,800 1,537 Climbing Washington Center
Sun 04:17:27 PM 39.6711 -74.7531 216° Southwest 481 554 27,200 1,576 Climbing Washington Center
Sun 04:18:25 PM 39.5656 -74.8594 218° Southwest 486 559 28,900 1,831 Climbing Washington Center
Sun 04:19:25 PM 39.4617 -74.9572 216° Southwest 481 554 30,800 1,438 Climbing Washington Center
Sun 04:20:26 PM 39.3603 -75.0547 217° Southwest 469 540 31,800 984 Climbing Washington Center
Sun 04:21:27 PM 39.2542 -75.1414 212° Southwest 463 533 32,800 793 Climbing Washington Center
Sun 04:22:27 PM 39.1356 -75.2008 201° Southwest 458 527 33,400 545 Climbing Washington Center
Sun 04:23:28 PM 39.0150 -75.2603 201° Southwest 463 533 33,900 305 Climbing Washington Center
Sun 04:24:25 PM 38.9006 -75.3194 202° Southwest 458 527 34,000 51 Climbing Washington Center
Sun 04:25:26 PM 38.7858 -75.3811 203° Southwest 451 519 34,000  Level Washington Center
Sun 04:26:27 PM 38.6692 -75.4400 202° Southwest 451 519 34,000  Level Washington Center
Sun 04:27:25 PM 38.5547 -75.4961 201° Southwest 451 519 34,000  Level Washington Center
Sun 04:28:25 PM 38.4422 -75.5600 204° Southwest 451 519 34,000  Level Washington Center
Sun 04:29:27 PM 38.3294 -75.6128 200° South 446 513 34,000  Level Washington Center
Sun 04:30:27 PM 38.2064 -75.6764 202° Southwest 446 513 34,000  Level Washington Center
Sun 04:31:25 PM 38.0917 -75.7317 201° Southwest 441 507 34,000  Level Washington Center
Sun 04:32:26 PM 37.9833 -75.7919 204° Southwest 436 502 34,000  Level Washington Center
Sun 04:33:26 PM 37.8664 -75.8469 200° South 436 502 34,000  Level Washington Center
Sun 04:34:27 PM 37.7556 -75.9044 202° Southwest 436 502 34,000  Level Washington Center
Sun 04:35:27 PM 37.6450 -75.9617 202° Southwest 436 502 34,000  Level Washington Center
Sun 04:36:25 PM 37.5322 -76.0161 201° Southwest 436 502 34,000  Level Washington Center
Sun 04:37:26 PM 37.4233 -76.0756 203° Southwest 436 502 34,000  Level Washington Center
Sun 04:38:27 PM 37.3147 -76.1325 203° Southwest 436 502 34,000  Level Washington Center
Sun 04:39:27 PM 37.1997 -76.1839 200° South 436 502 34,000  Level Washington Center
Sun 04:40:25 PM 37.0889 -76.2428 203° Southwest 436 502 34,000  Level Washington Center
Sun 04:41:26 PM 36.9781 -76.2992 202° Southwest 431 496 34,000  Level Washington Center
Sun 04:42:26 PM 36.8672 -76.3500 200° South 431 496 34,000  Level Washington Center
Sun 04:43:26 PM 36.7542 -76.3956 198° South 431 496 34,000  Level Washington Center
Sun 04:44:27 PM 36.6517 -76.4386 199° South 426 490 34,000  Level Washington Center
Sun 04:45:25 PM 36.5386 -76.4839 198° South 426 490 34,000  Level Washington Center
Sun 04:46:26 PM 36.4258 -76.5289 198° South 426 490 34,000  Level Washington Center
Sun 04:47:27 PM 36.3147 -76.5714 197° South 426 490 34,000  Level Washington Center
Sun 04:48:25 PM 36.2017 -76.6164 198° South 426 490 34,000  Level Washington Center
Sun 04:49:26 PM 36.0908 -76.6639 199° South 426 490 34,000  Level Washington Center
Sun 04:50:26 PM 35.9756 -76.7058 196° South 426 490 34,000  Level Washington Center
Sun 04:51:26 PM 35.8689 -76.7481 198° South 426 490 34,000  Level Washington Center
Sun 04:52:27 PM 35.7556 -76.7950 199° South 426 490 34,000  Level Washington Center
Sun 04:53:27 PM 35.6447 -76.8394 198° South 426 490 34,000  Level Washington Center
Sun 04:54:26 PM 35.5272 -76.8886 199° South 420 483 34,000  Level Washington Center
Sun 04:55:26 PM 35.4161 -76.9300 197° South 420 483 34,000  Level Washington Center
Sun 04:56:27 PM 35.3072 -76.9742 198° South 420 483 34,000  Level Washington Center
Sun 04:57:28 PM 35.1961 -77.0153 197° South 426 490 34,000  Level Washington Center
Sun 04:58:26 PM 35.1039 -77.0519 198° South 426 490 34,000  Level Washington Center
Sun 04:59:27 PM 34.9864 -77.1006 199° South 426 490 34,000  Level Washington Center
Sun 05:00:27 PM 34.8628 -77.1411 195° South 426 490 34,000  Level Washington Center
Sun 05:01:25 PM 34.7622 -77.1872 201° Southwest 426 490 34,000  Level Washington Center
Sun 05:02:26 PM 34.6531 -77.2281 197° South 426 490 34,000  Level Washington Center
Sun 05:03:27 PM 34.5439 -77.2689 197° South 426 490 34,000  Level Washington Center
Sun 05:04:27 PM 34.4350 -77.3119 198° South 426 490 34,000  Level Washington Center
Sun 05:05:25 PM 34.3236 -77.3522 197° South 426 490 34,000  Level Washington Center
Sun 05:07:15 PM 34.1250 -77.4294 198° South 422 486 34,000  Level Jacksonville Center
Sun 05:08:15 PM 34.0183 -77.4711 198° South 414 476 34,000  Level Jacksonville Center
Sun 05:09:15 PM 33.9011 -77.5108 196° South 414 476 34,000  Level Jacksonville Center
Sun 05:10:15 PM 33.7903 -77.5550 198° South 414 476 34,000  Level Jacksonville Center
Sun 05:11:15 PM 33.6853 -77.5914 196° South 408 470 34,000  Level Jacksonville Center
Sun 05:12:15 PM 33.5850 -77.6347 200° South 413 475 34,000 -50 Level Jacksonville Center
Sun 05:13:15 PM 33.4761 -77.6736 197° South 413 475 33,900  Descending Jacksonville Center
Sun 05:14:15 PM 33.3589 -77.7178 197° South 413 475 34,000 50 Climbing Jacksonville Center
Sun 05:15:15 PM 33.2519 -77.7539 196° South 408 470 34,000  Level Jacksonville Center
Sun 05:16:15 PM 33.1431 -77.7972 198° South 415 478 34,000  Level Jacksonville Center
Sun 05:17:15 PM 33.0319 -77.8358 196° South 415 478 34,000  Level Jacksonville Center
Sun 05:18:15 PM 32.9228 -77.8742 196° South 415 478 34,000  Level Jacksonville Center
Sun 05:19:15 PM 32.8139 -77.9147 197° South 415 478 34,000  Level Jacksonville Center
Sun 05:20:15 PM 32.7047 -77.9531 196° South 415 478 34,000  Level Jacksonville Center
Sun 05:21:15 PM 32.5936 -77.9958 198° South 415 478 34,000  Level Jacksonville Center
Sun 05:22:15 PM 32.4844 -78.0339 196° South 415 478 34,000  Level Jacksonville Center
Sun 05:23:15 PM 32.3775 -78.0739 198° South 415 478 34,000  Level Jacksonville Center
Sun 05:24:15 PM 32.2683 -78.1117 196° South 415 478 34,000  Level Jacksonville Center
Sun 05:25:15 PM 32.1592 -78.1492 196° South 415 478 34,000  Level Jacksonville Center
Sun 05:26:15 PM 32.0542 -78.1867 197° South 415 478 34,000  Level Jacksonville Center
Sun 05:27:15 PM 31.9447 -78.2239 196° South 415 478 34,000  Level Jacksonville Center
Sun 05:28:15 PM 31.8381 -78.2733 201° Southwest 415 478 34,000  Level Jacksonville Center
Sun 05:29:15 PM 31.7269 -78.3131 197° South 415 478 34,000  Level Jacksonville Center
Sun 05:30:15 PM 31.6217 -78.3500 197° South 415 478 34,000  Level Jacksonville Center
Sun 05:32:00 PM 31.4408 -78.4115 196° South  Level FlightAware Approximate
Sun 05:33:15 PM 31.2939 -78.4681 196° South 414 476 34,000  Level Jacksonville Center
Sun 05:34:15 PM 31.1847 -78.5072 197° South 414 476 34,000  Level Jacksonville Center
Sun 05:35:15 PM 31.0753 -78.5439 196° South 414 476 34,000  Level Jacksonville Center
Sun 05:36:15 PM 30.9728 -78.5947 203° Southwest 414 476 34,000  Level Jacksonville Center
Sun 05:37:15 PM 30.8683 -78.6575 207° Southwest 414 476 34,000 -50 Level Jacksonville Center
Sun 05:38:15 PM 30.7681 -78.7222 209° Southwest 409 471 33,900  Descending Jacksonville Center
Sun 05:39:15 PM 30.6767 -78.7939 214° Southwest 409 471 34,000 50 Climbing Jacksonville Center
Sun 05:40:15 PM 30.5672 -78.8347 198° South 409 471 34,000  Level Jacksonville Center
Sun 05:41:22 PM 30.4500 -78.8500 186° South 420 483 34,000  Level Miami Center
Sun 05:42:22 PM 30.3331 -78.8597 184° South 432 497 34,000  Level Miami Center
Sun 05:43:22 PM 30.2119 -78.8694 184° South 432 497 34,000  Level Miami Center
Sun 05:44:22 PM 30.0931 -78.8817 185° South 431 496 34,000  Level Miami Center
Sun 05:45:22 PM 29.9656 -78.8986 187° South 425 489 34,000  Level Miami Center
Sun 05:46:22 PM 29.8467 -78.9081 184° South 425 489 34,000  Level Miami Center
Sun 05:47:22 PM 29.7339 -78.9228 186° South 424 488 34,000  Level Miami Center
Sun 05:48:22 PM 29.6086 -78.9253 181° South 424 488 34,000  Level Miami Center
Sun 05:49:22 PM 29.4978 -78.9422 188° South 430 495 34,000  Level Miami Center
Sun 05:50:22 PM 29.3767 -78.9447 181° South 424 488 34,000  Level Miami Center
Sun 05:51:22 PM 29.2639 -78.9592 186° South 424 488 34,000  Level Miami Center
Sun 05:52:22 PM 29.1450 -78.9686 184° South 424 488 34,000  Level Miami Center
Sun 05:53:22 PM 29.0342 -78.9808 186° South 424 488 34,000  Level Miami Center
Sun 05:54:22 PM 28.9192 -78.9906 184° South 419 482 34,000  Level Miami Center
Sun 05:55:22 PM 28.8022 -79.0000 184° South 419 482 34,000  Level Miami Center
Sun 05:57:00 PM 28.6130 -79.0135 184° South  Level FlightAware Approximate
Sun 05:57:22 PM 28.5744 -79.0217 184° South 419 482 34,000  Level Miami Center
Sun 05:58:22 PM 28.4636 -79.0314 184° South 419 482 34,000  Level Miami Center
Sun 05:59:22 PM 28.3486 -79.0411 184° South 419 482 34,000  Level Miami Center
Sun 06:01:22 PM 28.1369 -79.1053 195° South 403 464 34,000  Level Miami Center
Sun 06:02:22 PM 28.0300 -79.1361 194° South 397 457 34,000  Level Miami Center
Sun 06:03:22 PM 27.9189 -79.1692 195° South 403 464 34,000  Level Miami Center
Sun 06:04:22 PM 27.8244 -79.2000 196° South 398 458 34,000  Level Miami Center
Sun 06:05:22 PM 27.7069 -79.2350 195° South 403 464 34,000 -800 Level Miami Center
Sun 06:06:22 PM 27.5997 -79.2658 194° South 397 457 32,400 -1,700 Descending Miami Center
Sun 06:07:22 PM 27.4908 -79.2986 195° South 402 463 30,600 -1,600 Descending Miami Center
Sun 06:08:22 PM 27.3919 -79.3317 197° South 407 468 29,200 -2,450 Descending Miami Center
Sun 06:09:22 PM 27.2661 -79.3664 194° South 422 486 25,700 -2,600 Descending Miami Center
Sun 06:10:22 PM 27.1569 -79.3989 195° South 422 486 24,000 -900 Descending Miami Center
Sun 06:11:22 PM 27.0519 -79.4317 196° South 405 466 23,900 -850 Descending Miami Center
Sun 06:12:22 PM 26.9553 -79.4597 195° South 398 458 22,300 -1,550 Descending Miami Center
Sun 06:13:22 PM 26.8503 -79.4947 197° South 398 458 20,800 -2,233 Descending Miami Center
Sun 06:15:22 PM 26.6444 -79.5553 195° South 388 447 15,600 -2,647 Descending Miami Center
Sun 06:15:38 PM 26.6086 -79.5800 212° Southwest 364 419 14,800 -2,400 Descending Miami Center
Sun 06:16:22 PM 26.5453 -79.6108 204° Southwest 378 435 13,200 -1,459 Descending Miami Center
Sun 06:16:52 PM 26.5069 -79.6542 225° Southwest 350 403 13,000 -200 Descending Miami Center
Sun 06:17:22 PM 26.4917 -79.6864 242° Southwest 342 394 13,000  Level Miami Center
Sun 06:17:53 PM 26.4572 -79.7436 236° Southwest 327 376 13,000 -100 Level Miami Center
Sun 06:18:22 PM 26.4397 -79.7756 239° Southwest 329 379 12,900  Descending Miami Center
Sun 06:18:54 PM 26.4139 -79.8214 238° Southwest 275 316 13,000 100 Climbing Miami Center
Sun 06:19:22 PM 26.4031 -79.8419 240° Southwest 294 338 13,000 -689 Level Miami Center
Sun 06:19:55 PM 26.3706 -79.8897 233° Southwest 257 296 12,300 -1,500 Descending Miami Center
Sun 06:20:22 PM 26.3514 -79.9103 224° Southwest 272 313 11,500 -1,355 Descending Miami Center
Sun 06:20:57 PM 26.3194 -79.9442 224° Southwest 257 296 10,900 -500 Descending Miami Center
Sun 06:21:22 PM 26.2964 -79.9436 179° South 261 300 11,000 -98 Climbing Miami Center
Sun 06:21:58 PM 26.2397 -79.9514 187° South 270 311 10,800 -600 Descending Miami Center
Sun 06:22:22 PM 26.2253 -79.9508 178° South 250 288 10,400 -885 Descending Miami Center
Sun 06:22:59 PM 26.1686 -79.9586 187° South 262 302 9,900 -1,000 Descending Miami Center
Sun 06:23:22 PM 26.1519 -79.9606 186° South 250 288 9,400 -1,880 Descending Miami Center
Sun 06:24:22 PM 26.0825 -79.9867 199° South 260 299 7,300 -1,750 Descending Miami Center
Sun 06:25:22 PM 26.0150 -80.0172 202° Southwest 265 305 5,900 -1,140 Descending Miami Center
Sun 06:26:02 PM 25.9622 -80.0389 200° South 251 289 5,400 -1,333 Descending Miami Center
Sun 06:28:04 PM 25.8375 -80.1047 205° Southwest 219 252 2,300 -1,180 Descending Miami Center
Sun 06:29:05 PM 25.8072 -80.1503 234° Southwest 173 199 1,800 -443 Descending Miami Center
Sun 06:30:06 PM 25.8019 -80.1983 263° West 148 170 1,400 -541 Descending Miami Center
Sun 06:31:07 PM 25.8031 -80.2400 272° West 127 146 700 -689 Descending Miami Center

Login

Don't have an account? Register now (free) for customized features, flight alerts, and more!